Time;durP1;ratioP1;P1;durP2;ratioP2;P2;SDS_P1;SDS_P2;PMS_P1;PMS_P2;Temp;Humidity;BMP_temperature;BMP_pressure;BME280_temperature;BME280_humidity;BME280_pressure;Samples;Min_cycle;Max_cycle;Signal;HPM_P1;HPM_P2
2023/07/02 00:02:24;;;;;;;9.43;4.90;;;19.80;85.80;;;;;;4969125;28;20181;-17
2023/07/02 00:04:50;;;;;;;10.85;5.10;;;19.70;85.80;;;;;;4955252;28;20438;-18
2023/07/02 00:07:15;;;;;;;9.67;5.00;;;19.70;85.70;;;;;;4957732;28;20034;-17
2023/07/02 00:09:41;;;;;;;11.35;5.13;;;19.70;85.90;;;;;;4965793;28;20092;-18
2023/07/02 00:12:08;;;;;;;10.60;4.73;;;19.70;85.90;;;;;;4967209;28;20572;-17
2023/07/02 00:14:33;;;;;;;10.32;4.97;;;19.70;86.70;;;;;;4943725;28;20030;-17
2023/07/02 00:16:59;;;;;;;11.77;5.47;;;19.60;86.00;;;;;;4947830;28;20252;-17
2023/07/02 00:19:25;;;;;;;11.20;5.28;;;19.70;86.00;;;;;;4971277;28;20097;-17
2023/07/02 00:21:53;;;;;;;12.73;5.70;;;19.60;85.90;;;;;;4943019;28;20216;-17
2023/07/02 00:24:19;;;;;;;10.48;5.05;;;19.60;85.90;;;;;;4975828;28;20116;-17
2023/07/02 00:26:44;;;;;;;10.20;4.90;;;19.60;86.00;;;;;;4965976;28;20057;-18
2023/07/02 00:29:11;;;;;;;10.57;5.20;;;19.60;86.00;;;;;;4956105;28;20038;-18
2023/07/02 00:31:37;;;;;;;12.32;5.63;;;19.60;86.00;;;;;;4965356;28;20117;-18
2023/07/02 00:34:04;;;;;;;13.03;6.00;;;19.60;86.00;;;;;;4965810;28;20235;-17
2023/07/02 00:36:30;;;;;;;11.75;5.20;;;19.60;86.00;;;;;;4958246;28;20661;-17
2023/07/02 00:38:56;;;;;;;11.70;5.40;;;19.60;86.00;;;;;;4955705;28;20873;-17
2023/07/02 00:41:23;;;;;;;12.40;5.00;;;19.50;86.00;;;;;;4968237;28;20022;-17
2023/07/02 00:43:49;;;;;;;10.75;5.30;;;19.50;86.00;;;;;;4966668;28;20148;-18
2023/07/02 00:46:22;;;;;;;11.97;5.27;;;19.50;86.00;;;;;;4958765;28;20505;-17
2023/07/02 00:48:50;;;;;;;10.82;5.25;;;19.50;86.00;;;;;;4979205;28;20023;-18
2023/07/02 00:51:24;;;;;;;10.98;5.45;;;19.50;86.00;;;;;;4965317;28;20106;-17
2023/07/02 00:53:52;;;;;;;10.10;5.13;;;19.50;85.90;;;;;;4960633;28;20053;-18
2023/07/02 00:56:18;;;;;;;12.73;5.75;;;19.50;86.10;;;;;;4958843;28;20385;-17
2023/07/02 00:58:48;;;;;;;9.93;4.90;;;19.50;86.00;;;;;;4966571;28;20096;-18
2023/07/02 01:01:22;;;;;;;10.50;5.15;;;19.50;86.10;;;;;;4943878;28;20049;-18
2023/07/02 01:04:02;;;;;;;10.45;5.10;;;19.50;86.00;;;;;;4963878;28;20031;-18
2023/07/02 01:06:30;;;;;;;11.23;5.38;;;19.40;85.80;;;;;;4968578;28;20025;-18
2023/07/02 01:09:05;;;;;;;12.98;5.40;;;19.40;86.10;;;;;;4961910;28;20260;-18
2023/07/02 01:11:40;;;;;;;10.47;5.00;;;19.50;86.20;;;;;;4970313;28;20027;-17
2023/07/02 01:14:08;;;;;;;9.93;5.10;;;19.40;86.20;;;;;;4966832;28;20424;-18
2023/07/02 01:16:35;;;;;;;13.48;5.97;;;19.40;86.20;;;;;;4944514;28;20049;-18
2023/07/02 01:19:06;;;;;;;11.35;5.35;;;19.40;86.30;;;;;;4964591;28;20035;-18
2023/07/02 01:21:33;;;;;;;11.23;5.22;;;19.50;86.30;;;;;;4965483;28;20401;-18
2023/07/02 01:24:00;;;;;;;12.70;5.43;;;19.40;86.30;;;;;;4961719;28;20220;-18
2023/07/02 01:26:34;;;;;;;12.77;5.80;;;19.40;86.30;;;;;;4968088;28;20328;-17
2023/07/02 01:29:14;;;;;;;12.20;5.63;;;19.40;86.30;;;;;;4971768;28;20240;-18
2023/07/02 01:31:39;;;;;;;12.70;5.65;;;19.40;86.20;;;;;;4940932;28;20088;-18
2023/07/02 01:34:07;;;;;;;12.07;5.43;;;19.50;86.60;;;;;;4968402;28;20328;-17
2023/07/02 01:36:33;;;;;;;10.57;5.40;;;19.40;86.50;;;;;;4953606;28;20310;-18
2023/07/02 01:38:59;;;;;;;13.68;6.05;;;19.50;86.70;;;;;;4956105;28;20019;-18
2023/07/02 01:41:25;;;;;;;14.60;6.00;;;19.40;86.60;;;;;;4949329;28;20030;-18
2023/07/02 01:43:51;;;;;;;12.35;5.57;;;19.40;86.60;;;;;;4957277;28;20465;-18
2023/07/02 01:46:16;;;;;;;13.80;5.90;;;19.40;86.60;;;;;;4954084;28;20022;-18
2023/07/02 01:48:42;;;;;;;14.30;5.60;;;19.40;86.50;;;;;;4951832;28;20176;-17
2023/07/02 01:51:08;;;;;;;13.20;5.67;;;19.40;86.50;;;;;;4959207;28;20027;-17
2023/07/02 01:53:33;;;;;;;11.85;5.50;;;19.50;86.60;;;;;;4953793;28;20042;-18
2023/07/02 01:55:59;;;;;;;11.43;5.43;;;19.40;86.50;;;;;;4955432;28;20042;-17
2023/07/02 01:58:25;;;;;;;15.13;6.60;;;19.40;86.60;;;;;;4960521;28;20553;-18
2023/07/02 02:00:51;;;;;;;12.85;5.88;;;19.40;86.50;;;;;;4969258;28;20066;-17
2023/07/02 02:03:18;;;;;;;13.40;5.77;;;19.50;86.60;;;;;;4940850;28;20034;-18
2023/07/02 02:05:44;;;;;;;13.75;6.18;;;19.40;86.50;;;;;;4966671;28;20155;-17
2023/07/02 02:08:09;;;;;;;14.27;5.93;;;19.40;86.50;;;;;;4954849;28;20097;-18
2023/07/02 02:10:35;;;;;;;14.70;6.17;;;19.40;86.50;;;;;;4951730;28;20051;-18
2023/07/02 02:13:01;;;;;;;13.73;6.32;;;19.40;86.50;;;;;;4968640;28;20034;-18
2023/07/02 02:15:27;;;;;;;13.80;5.80;;;19.40;86.60;;;;;;4964664;28;20026;-18
2023/07/02 02:17:52;;;;;;;13.73;6.07;;;19.30;86.60;;;;;;4971064;28;20078;-18
2023/07/02 02:20:18;;;;;;;14.57;6.27;;;19.30;86.60;;;;;;4944847;28;20034;-18
2023/07/02 02:22:44;;;;;;;12.15;5.93;;;19.30;86.60;;;;;;4970553;28;20133;-18
2023/07/02 02:25:10;;;;;;;11.98;5.60;;;19.30;86.60;;;;;;4960214;28;20658;-18
2023/07/02 02:27:35;;;;;;;13.77;6.10;;;19.30;86.50;;;;;;4958847;28;20235;-17
2023/07/02 02:30:01;;;;;;;13.48;6.07;;;19.20;86.50;;;;;;4967449;28;20038;-17
2023/07/02 02:32:27;;;;;;;11.93;5.73;;;19.20;86.40;;;;;;4965992;28;20039;-18
2023/07/02 02:34:53;;;;;;;10.85;5.38;;;19.20;86.40;;;;;;4945784;28;20034;-17
2023/07/02 02:37:21;;;;;;;12.50;6.07;;;19.20;86.40;;;;;;4969309;28;20023;-18
2023/07/02 02:39:47;;;;;;;13.82;5.70;;;19.20;86.50;;;;;;4958412;28;20485;-17
2023/07/02 02:42:13;;;;;;;12.38;5.75;;;19.10;86.40;;;;;;4960365;28;20038;-18
2023/07/02 02:44:38;;;;;;;12.33;6.10;;;19.10;86.50;;;;;;4969785;28;20038;-17
2023/07/02 02:47:05;;;;;;;13.52;6.03;;;19.10;86.60;;;;;;4968815;28;20309;-17
2023/07/02 02:49:31;;;;;;;14.48;6.22;;;19.00;86.50;;;;;;4947871;28;21202;-17
2023/07/02 02:51:57;;;;;;;13.40;6.18;;;19.00;86.60;;;;;;4972847;28;20522;-17
2023/07/02 02:54:22;;;;;;;13.63;5.57;;;18.90;86.60;;;;;;4961646;28;20054;-18
2023/07/02 02:56:48;;;;;;;14.23;6.03;;;18.90;86.70;;;;;;4982827;28;20540;-17
2023/07/02 02:59:14;;;;;;;12.57;6.23;;;18.90;86.70;;;;;;4960191;28;20038;-18
2023/07/02 03:01:40;;;;;;;14.30;6.07;;;18.80;86.60;;;;;;4961301;28;20145;-17
2023/07/02 03:04:08;;;;;;;13.40;6.07;;;18.80;86.80;;;;;;4970183;28;20031;-18
2023/07/02 03:06:34;;;;;;;12.30;5.78;;;18.80;86.80;;;;;;4939347;28;20428;-17
2023/07/02 03:08:59;;;;;;;14.50;5.93;;;18.70;86.80;;;;;;4969274;28;20030;-17
2023/07/02 03:11:25;;;;;;;15.73;6.10;;;18.70;86.90;;;;;;4958753;28;20031;-18
2023/07/02 03:13:51;;;;;;;14.52;6.63;;;18.70;86.90;;;;;;4961693;28;20425;-17
2023/07/02 03:16:16;;;;;;;12.27;5.87;;;18.70;87.10;;;;;;4963196;28;20500;-17
2023/07/02 03:18:42;;;;;;;14.63;5.82;;;18.70;87.30;;;;;;4967116;28;20529;-17
2023/07/02 03:21:09;;;;;;;12.10;5.97;;;18.60;87.20;;;;;;4966739;28;20540;-17
2023/07/02 03:23:35;;;;;;;13.45;5.55;;;18.60;87.30;;;;;;4947671;28;20544;-18
2023/07/02 03:26:01;;;;;;;12.35;5.82;;;18.60;87.40;;;;;;4951799;28;20040;-17
2023/07/02 03:28:27;;;;;;;14.30;6.33;;;18.60;87.40;;;;;;4955453;28;20050;-18
2023/07/02 03:30:53;;;;;;;15.25;6.22;;;18.50;87.40;;;;;;4970722;28;20022;-17
2023/07/02 03:33:19;;;;;;;14.73;6.38;;;18.50;87.40;;;;;;4964062;28;20030;-18
2023/07/02 03:35:44;;;;;;;12.97;6.00;;;18.50;87.40;;;;;;4970420;28;20708;-17
2023/07/02 03:38:10;;;;;;;15.20;6.30;;;18.50;87.60;;;;;;4945450;28;20047;-17
2023/07/02 03:40:36;;;;;;;14.10;6.30;;;18.50;87.70;;;;;;4957765;28;20673;-17
2023/07/02 03:43:01;;;;;;;12.82;6.05;;;18.50;87.70;;;;;;4985548;28;20038;-16
2023/07/02 03:45:27;;;;;;;14.33;6.40;;;18.50;87.90;;;;;;4956706;28;20030;-18
2023/07/02 03:47:53;;;;;;;13.60;6.20;;;18.50;87.90;;;;;;4978253;28;20377;-17
2023/07/02 03:50:19;;;;;;;13.40;6.03;;;18.50;88.00;;;;;;4969091;28;20071;-17
2023/07/02 03:52:44;;;;;;;13.38;6.15;;;18.40;88.00;;;;;;4944593;28;21231;-17
2023/07/02 03:55:10;;;;;;;14.03;6.23;;;18.50;88.00;;;;;;4966866;28;20029;-18
2023/07/02 03:57:36;;;;;;;13.90;6.43;;;18.40;88.00;;;;;;4965146;28;20153;-17
2023/07/02 04:00:02;;;;;;;12.67;6.00;;;18.40;88.10;;;;;;4962500;28;20050;-17
2023/07/02 04:02:28;;;;;;;14.75;6.10;;;18.40;88.10;;;;;;4957639;28;20673;-17
2023/07/02 04:04:53;;;;;;;14.23;6.38;;;18.40;88.20;;;;;;4969329;28;20054;-17
2023/07/02 04:07:19;;;;;;;14.30;5.90;;;18.40;88.20;;;;;;4967316;28;20030;-18
2023/07/02 04:09:45;;;;;;;12.13;5.70;;;18.40;88.40;;;;;;4943109;28;20136;-17
2023/07/02 04:12:10;;;;;;;13.83;6.70;;;18.40;88.60;;;;;;4957335;28;20990;-17
2023/07/02 04:14:36;;;;;;;14.23;6.77;;;18.40;88.60;;;;;;4957514;28;20497;-17
2023/07/02 04:17:05;;;;;;;15.33;6.80;;;18.40;88.60;;;;;;4967134;28;20423;-17
2023/07/02 04:19:30;;;;;;;13.15;5.80;;;18.30;88.60;;;;;;4958843;28;20137;-17
2023/07/02 04:21:56;;;;;;;14.13;6.20;;;18.30;88.80;;;;;;4969214;28;20037;-17
2023/07/02 04:24:22;;;;;;;13.55;5.88;;;18.40;88.80;;;;;;4938568;28;20030;-17
2023/07/02 04:26:47;;;;;;;15.30;6.43;;;18.40;88.90;;;;;;4958844;28;20045;-17
2023/07/02 04:29:13;;;;;;;14.75;6.22;;;18.40;89.00;;;;;;4963591;28;20160;-18
2023/07/02 04:31:39;;;;;;;16.27;7.27;;;18.40;89.00;;;;;;4957567;28;20332;-17
2023/07/02 04:34:05;;;;;;;16.08;6.50;;;18.40;89.10;;;;;;4962227;28;20074;-17
2023/07/02 04:36:31;;;;;;;14.50;6.80;;;18.40;89.20;;;;;;4965658;28;20221;-17
2023/07/02 04:38:57;;;;;;;17.80;6.63;;;18.40;89.20;;;;;;4980573;28;20019;-18
2023/07/02 04:41:23;;;;;;;16.70;6.47;;;18.50;89.40;;;;;;4928275;28;20106;-18
2023/07/02 04:43:48;;;;;;;15.63;7.20;;;18.50;89.50;;;;;;4970177;28;20032;-17
2023/07/02 04:46:14;;;;;;;15.70;7.13;;;18.50;89.50;;;;;;4979748;28;20027;-18
2023/07/02 04:48:40;;;;;;;15.98;6.35;;;18.50;89.60;;;;;;4970645;28;20321;-17
2023/07/02 04:51:06;;;;;;;15.07;6.77;;;18.50;89.70;;;;;;4969685;28;20031;-17
2023/07/02 04:53:31;;;;;;;15.50;6.97;;;18.50;89.70;;;;;;4960985;28;20089;-17
2023/07/02 04:55:58;;;;;;;16.67;6.70;;;18.60;89.80;;;;;;4958471;28;20026;-17
2023/07/02 04:58:23;;;;;;;14.27;6.72;;;18.60;89.80;;;;;;4955987;28;20093;-18
2023/07/02 05:00:49;;;;;;;14.10;6.50;;;18.60;89.90;;;;;;4947678;28;20117;-18
2023/07/02 05:03:15;;;;;;;12.77;6.18;;;18.70;90.00;;;;;;4949916;28;20034;-17
2023/07/02 05:05:40;;;;;;;15.82;6.97;;;18.70;90.00;;;;;;4980311;28;20302;-17
2023/07/02 05:08:06;;;;;;;15.40;7.27;;;18.70;90.10;;;;;;4969016;28;20658;-17
2023/07/02 05:10:32;;;;;;;16.80;7.00;;;18.80;90.10;;;;;;4968666;28;20485;-17
2023/07/02 05:12:58;;;;;;;16.80;7.13;;;18.80;90.10;;;;;;4927238;28;20271;-17
2023/07/02 05:15:24;;;;;;;15.40;6.82;;;18.80;90.10;;;;;;4970886;28;20023;-17
2023/07/02 05:17:50;;;;;;;17.27;7.30;;;18.80;90.40;;;;;;4955473;28;20023;-18
2023/07/02 05:20:16;;;;;;;15.10;7.03;;;18.90;90.10;;;;;;4948147;28;20037;-17
2023/07/02 05:22:41;;;;;;;18.80;7.25;;;18.90;90.10;;;;;;4956246;28;20035;-18
2023/07/02 05:25:07;;;;;;;14.27;6.70;;;18.90;90.20;;;;;;4968668;28;20544;-18
2023/07/02 05:27:33;;;;;;;15.68;7.28;;;18.90;90.20;;;;;;4942231;28;20531;-17
2023/07/02 05:29:59;;;;;;;15.90;7.20;;;19.00;90.20;;;;;;4953317;28;20347;-17
2023/07/02 05:32:24;;;;;;;16.80;7.25;;;19.00;90.20;;;;;;4967135;28;20049;-17
2023/07/02 05:34:50;;;;;;;15.50;6.77;;;19.00;90.10;;;;;;4952302;28;20037;-18
2023/07/02 05:37:16;;;;;;;13.75;6.88;;;19.10;90.10;;;;;;4941638;28;20058;-17
2023/07/02 05:39:42;;;;;;;17.17;7.60;;;19.10;90.20;;;;;;4968362;28;20034;-17
2023/07/02 05:42:07;;;;;;;17.63;7.65;;;19.10;90.50;;;;;;4937214;28;20540;-17
2023/07/02 05:44:33;;;;;;;18.33;7.13;;;19.10;90.20;;;;;;4969613;28;20433;-17
2023/07/02 05:46:59;;;;;;;17.27;7.65;;;19.20;90.20;;;;;;4955016;28;20557;-17
2023/07/02 05:49:26;;;;;;;16.13;7.13;;;19.20;90.20;;;;;;4957394;28;20034;-17
2023/07/02 05:51:52;;;;;;;17.13;7.60;;;19.20;90.30;;;;;;4980236;28;20303;-17
2023/07/02 05:54:17;;;;;;;18.13;7.80;;;19.30;90.30;;;;;;4958864;28;20065;-17
2023/07/02 05:56:43;;;;;;;18.37;7.37;;;19.30;90.30;;;;;;4972521;28;20094;-18
2023/07/02 05:59:09;;;;;;;16.45;7.25;;;19.30;90.40;;;;;;4947462;28;20238;-17
2023/07/02 06:01:36;;;;;;;16.40;7.23;;;19.40;90.30;;;;;;4962994;28;20532;-18
2023/07/02 06:04:02;;;;;;;15.82;7.30;;;19.40;90.30;;;;;;4971986;28;20457;-17
2023/07/02 06:06:27;;;;;;;15.00;7.45;;;19.40;90.30;;;;;;4974649;28;20010;-17
2023/07/02 06:08:53;;;;;;;14.73;7.03;;;19.50;90.30;;;;;;4954966;28;20057;-18
2023/07/02 06:11:19;;;;;;;16.15;7.13;;;19.50;90.30;;;;;;4973788;28;20428;-17
2023/07/02 06:13:44;;;;;;;15.50;7.13;;;19.60;90.30;;;;;;4957622;28;20034;-18
2023/07/02 06:16:10;;;;;;;17.40;7.38;;;19.60;90.30;;;;;;4948212;28;20527;-17
2023/07/02 06:18:36;;;;;;;15.47;7.67;;;19.60;90.60;;;;;;4973594;28;20110;-18
2023/07/02 06:21:02;;;;;;;19.23;6.65;;;19.70;90.40;;;;;;4962062;28;20026;-17
2023/07/02 06:23:29;;;;;;;14.73;6.77;;;19.80;90.50;;;;;;4975662;28;20034;-17
2023/07/02 06:25:58;;;;;;;19.05;7.07;;;19.80;90.50;;;;;;4958435;28;20179;-17
2023/07/02 06:28:26;;;;;;;15.52;6.93;;;19.90;90.40;;;;;;4965450;28;20030;-18
2023/07/02 06:30:52;;;;;;;15.68;7.13;;;19.90;90.40;;;;;;4937634;28;20580;-17
2023/07/02 06:33:17;;;;;;;14.65;6.82;;;20.00;90.40;;;;;;4973708;28;20027;-17
2023/07/02 06:35:43;;;;;;;17.37;7.10;;;20.10;90.40;;;;;;4975002;28;20026;-17
2023/07/02 06:38:09;;;;;;;16.35;7.18;;;20.10;90.40;;;;;;4969659;28;20043;-17
2023/07/02 06:40:34;;;;;;;14.70;7.40;;;20.20;90.30;;;;;;4973041;28;20034;-17
2023/07/02 06:43:00;;;;;;;17.00;6.80;;;20.20;90.20;;;;;;4977802;28;20037;-17
2023/07/02 06:45:26;;;;;;;15.30;7.17;;;20.30;90.20;;;;;;4946707;28;20034;-17
2023/07/02 06:47:52;;;;;;;17.05;7.78;;;20.30;90.20;;;;;;4974267;28;20031;-18
2023/07/02 06:50:17;;;;;;;15.83;7.03;;;20.30;90.20;;;;;;4974599;28;20035;-17
2023/07/02 06:52:43;;;;;;;13.98;6.70;;;20.40;90.20;;;;;;4963679;28;20032;-17
2023/07/02 06:55:09;;;;;;;15.30;6.77;;;20.40;90.20;;;;;;4956190;28;20045;-17
2023/07/02 06:57:35;;;;;;;13.68;6.10;;;20.50;90.20;;;;;;4991689;28;20031;-17
2023/07/02 07:00:01;;;;;;;15.37;6.30;;;20.60;90.10;;;;;;4944049;28;20175;-17
2023/07/02 07:02:27;;;;;;;12.88;6.22;;;20.60;90.10;;;;;;4971652;28;20501;-17
2023/07/02 07:04:53;;;;;;;11.32;5.32;;;20.70;90.10;;;;;;4961395;28;20366;-18
2023/07/02 07:07:19;;;;;;;11.73;5.67;;;20.80;90.00;;;;;;4943237;28;20034;-17
2023/07/02 07:09:45;;;;;;;11.95;5.07;;;20.80;89.70;;;;;;4970902;28;20042;-17
2023/07/02 07:12:10;;;;;;;11.65;5.47;;;20.90;89.40;;;;;;4954996;28;20057;-17
2023/07/02 07:14:36;;;;;;;12.07;5.40;;;20.90;89.00;;;;;;4957760;28;20038;-17
2023/07/02 07:17:02;;;;;;;11.38;4.85;;;21.00;88.60;;;;;;4948544;28;20034;-17
2023/07/02 07:19:28;;;;;;;11.17;5.00;;;21.00;88.30;;;;;;4944920;28;20116;-17
2023/07/02 07:21:54;;;;;;;11.18;4.75;;;21.00;87.80;;;;;;4964605;28;20712;-17
2023/07/02 07:24:20;;;;;;;13.05;5.28;;;21.10;88.00;;;;;;4961446;28;20118;-17
2023/07/02 07:26:45;;;;;;;10.27;4.40;;;21.10;87.50;;;;;;4962674;28;20110;-18
2023/07/02 07:29:11;;;;;;;9.43;4.43;;;21.20;87.50;;;;;;4964795;28;20089;-17
2023/07/02 07:31:37;;;;;;;11.40;4.93;;;21.20;87.40;;;;;;4950646;28;20604;-17
2023/07/02 07:34:03;;;;;;;9.88;4.50;;;21.20;86.80;;;;;;4953109;28;20033;-17
2023/07/02 07:36:28;;;;;;;10.20;4.33;;;21.30;86.80;;;;;;4967800;28;20429;-17
2023/07/02 07:38:54;;;;;;;9.82;4.20;;;21.30;87.00;;;;;;4942179;28;20216;-17
2023/07/02 07:41:20;;;;;;;7.50;3.70;;;21.40;87.20;;;;;;4973621;28;20084;-17
2023/07/02 07:43:45;;;;;;;8.05;4.05;;;21.50;87.40;;;;;;4947352;28;20054;-17
2023/07/02 07:46:11;;;;;;;9.60;3.90;;;21.50;87.10;;;;;;4970001;28;20080;-17
2023/07/02 07:48:37;;;;;;;8.38;3.50;;;21.60;86.80;;;;;;4940528;28;20037;-18
2023/07/02 07:51:02;;;;;;;8.73;3.80;;;21.70;86.40;;;;;;4967599;28;20030;-18
2023/07/02 07:53:28;;;;;;;8.07;3.15;;;21.80;86.10;;;;;;4968015;28;20051;-18
2023/07/02 07:55:54;;;;;;;8.07;3.43;;;21.90;85.80;;;;;;4961016;28;20026;-17
2023/07/02 07:58:19;;;;;;;5.95;3.00;;;21.90;85.50;;;;;;4982643;28;20027;-17
2023/07/02 08:00:45;;;;;;;9.33;3.50;;;21.90;85.20;;;;;;4957870;28;20943;-17
2023/07/02 08:03:11;;;;;;;6.63;2.97;;;22.00;84.80;;;;;;4965772;28;20083;-17
2023/07/02 08:05:37;;;;;;;7.80;2.80;;;22.10;84.70;;;;;;4936307;28;20046;-18
2023/07/02 08:08:02;;;;;;;6.63;2.80;;;22.20;84.50;;;;;;4966939;28;20037;-17
2023/07/02 08:10:28;;;;;;;7.10;2.60;;;22.30;84.40;;;;;;4964914;28;20543;-18
2023/07/02 08:12:54;;;;;;;6.20;2.47;;;22.40;84.00;;;;;;4963098;28;20484;-17
2023/07/02 08:15:19;;;;;;;4.37;2.30;;;22.50;84.00;;;;;;4960838;28;20033;-17
2023/07/02 08:17:45;;;;;;;5.03;2.50;;;22.60;83.80;;;;;;4954525;28;20030;-17
2023/07/02 08:20:11;;;;;;;5.20;2.50;;;22.70;83.70;;;;;;4941806;28;20110;-17
2023/07/02 08:22:38;;;;;;;4.43;2.35;;;22.80;83.80;;;;;;4947348;28;20529;-17
2023/07/02 08:25:05;;;;;;;5.22;2.30;;;23.00;83.70;;;;;;4969535;28;21002;-18
2023/07/02 08:27:30;;;;;;;4.55;2.25;;;23.10;83.80;;;;;;4973841;28;20042;-18
2023/07/02 08:29:56;;;;;;;5.77;2.50;;;23.30;83.50;;;;;;4968858;28;20104;-17
2023/07/02 08:32:22;;;;;;;4.72;2.20;;;23.50;84.30;;;;;;4954299;28;20300;-18
2023/07/02 08:34:48;;;;;;;4.90;2.43;;;23.70;83.20;;;;;;4984610;28;20151;-18
2023/07/02 08:37:13;;;;;;;5.57;2.50;;;23.80;83.10;;;;;;4939136;28;20034;-18
2023/07/02 08:39:39;;;;;;;6.23;2.50;;;24.00;82.70;;;;;;4950434;28;20303;-17
2023/07/02 08:42:05;;;;;;;5.25;2.50;;;24.20;81.90;;;;;;4958805;28;20053;-18
2023/07/02 08:44:31;;;;;;;5.03;2.40;;;24.40;81.50;;;;;;4966878;28;20081;-18
2023/07/02 08:46:57;;;;;;;5.60;2.42;;;24.50;80.10;;;;;;4960027;28;20118;-18
2023/07/02 08:49:24;;;;;;;6.33;2.67;;;24.50;79.10;;;;;;4962587;28;20070;-18
2023/07/02 08:51:49;;;;;;;6.20;2.75;;;24.60;79.20;;;;;;4941233;28;20033;-17
2023/07/02 08:54:18;;;;;;;5.97;2.70;;;24.60;79.40;;;;;;4985438;28;20042;-18
2023/07/02 08:56:45;;;;;;;5.03;2.60;;;24.70;78.50;;;;;;4967829;28;20019;-18
2023/07/02 08:59:11;;;;;;;5.32;2.63;;;24.80;78.50;;;;;;4961379;28;20117;-17
2023/07/02 09:01:48;;;;;;;5.75;2.80;;;24.90;78.80;;;;;;4954262;28;23675;-18
2023/07/02 09:04:18;;;;;;;6.30;2.70;;;25.00;76.00;;;;;;4978907;28;20035;-18
2023/07/02 09:06:44;;;;;;;5.75;2.75;;;25.10;77.60;;;;;;4945763;28;20769;-17
2023/07/02 09:09:09;;;;;;;6.47;2.80;;;25.30;80.10;;;;;;4964777;28;20034;-18
2023/07/02 09:11:45;;;;;;;6.43;3.10;;;25.60;79.80;;;;;;4966599;28;20263;-18
2023/07/02 09:14:11;;;;;;;6.15;2.88;;;25.80;79.40;;;;;;4971125;28;20271;-18
2023/07/02 09:16:40;;;;;;;6.20;3.00;;;26.00;78.20;;;;;;4961344;28;20034;-17
2023/07/02 09:19:08;;;;;;;7.20;3.05;;;26.20;77.70;;;;;;4956538;28;20049;-18
2023/07/02 09:21:48;;;;;;;6.65;3.50;;;26.30;76.30;;;;;;4950451;28;20576;-17
2023/07/02 09:24:19;;;;;;;5.93;3.20;;;26.40;72.40;;;;;;4965397;28;20023;-18
2023/07/02 09:26:51;;;;;;;6.65;3.40;;;26.50;74.20;;;;;;4964709;28;20014;-18
2023/07/02 09:29:24;;;;;;;6.85;3.50;;;26.60;77.10;;;;;;4958088;28;20416;-18
2023/07/02 09:31:50;;;;;;;8.38;3.45;;;26.90;76.00;;;;;;4963030;28;20053;-17
2023/07/02 09:34:16;;;;;;;8.27;4.20;;;27.20;77.70;;;;;;4969682;28;20038;-18
2023/07/02 09:36:43;;;;;;;7.73;4.03;;;27.50;77.20;;;;;;4963230;28;20023;-17
2023/07/02 09:39:25;;;;;;;7.05;4.03;;;27.80;76.90;;;;;;4939764;28;20030;-18
2023/07/02 09:41:51;;;;;;;7.70;3.90;;;28.10;72.60;;;;;;4962758;28;20700;-18
2023/07/02 09:44:18;;;;;;;7.20;3.90;;;28.40;74.50;;;;;;4963655;28;20021;-18
2023/07/02 09:46:58;;;;;;;8.33;3.97;;;28.50;72.70;;;;;;4970726;28;20470;-18
2023/07/02 09:49:25;;;;;;;8.80;4.05;;;28.50;65.60;;;;;;4969088;28;20022;-18
2023/07/02 09:51:52;;;;;;;8.45;3.97;;;28.30;68.00;;;;;;4966060;28;20402;-18
2023/07/02 09:54:20;;;;;;;8.35;4.03;;;28.10;67.20;;;;;;4938637;28;20569;-18
2023/07/02 09:56:47;;;;;;;8.40;4.03;;;27.80;67.10;;;;;;4967618;28;20034;-17
2023/07/02 09:59:13;;;;;;;9.10;4.30;;;27.60;66.00;;;;;;4981731;28;20027;-18
2023/07/02 10:01:39;;;;;;;6.93;4.00;;;27.30;66.30;;;;;;4968026;28;20249;-18
2023/07/02 10:04:15;;;;;;;8.73;4.45;;;27.20;68.90;;;;;;4965583;28;20393;-18
2023/07/02 10:06:57;;;;;;;9.57;4.70;;;27.20;65.40;;;;;;4960186;28;20248;-18
2023/07/02 10:09:42;;;;;;;8.07;4.37;;;27.30;67.10;;;;;;4938567;28;20433;-18
2023/07/02 10:12:26;;;;;;;7.38;3.83;;;27.30;63.60;;;;;;4966706;28;20074;-18
2023/07/02 10:14:53;;;;;;;8.82;4.13;;;27.20;64.50;;;;;;4949865;28;20030;-17
2023/07/02 10:17:33;;;;;;;8.35;4.10;;;27.00;65.90;;;;;;4958806;28;20117;-18
2023/07/02 10:20:16;;;;;;;9.30;4.57;;;26.80;63.50;;;;;;4963771;28;20129;-18
2023/07/02 10:22:43;;;;;;;9.13;4.27;;;26.60;64.00;;;;;;4955682;28;20034;-17
2023/07/02 10:25:09;;;;;;;10.85;4.80;;;26.30;64.50;;;;;;4970016;28;20035;-18
2023/07/02 10:27:42;;;;;;;10.07;4.35;;;26.10;64.60;;;;;;4948377;28;20065;-17
2023/07/02 10:30:09;;;;;;;8.02;4.55;;;25.90;64.00;;;;;;4965335;28;20030;-18
2023/07/02 10:32:37;;;;;;;9.33;4.50;;;25.80;65.80;;;;;;4962419;28;20080;-18
2023/07/02 10:35:25;;;;;;;9.48;4.47;;;25.90;67.80;;;;;;4985545;28;20477;-18
2023/07/02 10:37:51;;;;;;;7.97;4.40;;;26.00;65.20;;;;;;4961396;28;20440;-17
2023/07/02 10:40:17;;;;;;;10.57;4.15;;;26.10;67.30;;;;;;4957530;28;20121;-18
2023/07/02 10:42:49;;;;;;;8.80;4.27;;;26.20;66.90;;;;;;4944866;28;20570;-17
2023/07/02 10:45:15;;;;;;;9.23;4.15;;;26.20;65.40;;;;;;4976201;28;20477;-18
2023/07/02 10:47:41;;;;;;;9.15;4.18;;;26.20;66.40;;;;;;4971756;28;20030;-18
2023/07/02 10:50:20;;;;;;;8.82;4.22;;;26.20;66.10;;;;;;4969525;28;20057;-18
2023/07/02 10:52:47;;;;;;;10.43;4.47;;;26.10;63.00;;;;;;4964497;28;20630;-17
2023/07/02 10:55:18;;;;;;;8.93;3.50;;;26.10;63.90;;;;;;4968703;28;20567;-18
2023/07/02 10:57:44;;;;;;;8.95;3.80;;;25.90;62.70;;;;;;4960212;28;20089;-18
2023/07/02 11:00:10;;;;;;;10.68;3.63;;;25.70;63.60;;;;;;4967139;28;20055;-18
2023/07/02 11:02:40;;;;;;;6.67;3.37;;;25.60;63.50;;;;;;4960189;28;20632;-17
2023/07/02 11:05:14;;;;;;;7.95;3.58;;;25.40;62.90;;;;;;4971148;28;20105;-17
2023/07/02 11:07:41;;;;;;;6.88;3.60;;;25.30;63.50;;;;;;4947671;28;20226;-17
2023/07/02 11:10:08;;;;;;;6.10;3.40;;;25.20;64.10;;;;;;4985536;28;20038;-18
2023/07/02 11:12:34;;;;;;;7.88;3.90;;;25.20;65.10;;;;;;4967874;28;20124;-17
2023/07/02 11:15:10;;;;;;;7.27;3.37;;;25.30;65.70;;;;;;4952115;28;20030;-18
2023/07/02 11:17:36;;;;;;;8.00;3.83;;;25.30;64.30;;;;;;4965317;28;20023;-18
2023/07/02 11:20:05;;;;;;;7.25;3.80;;;25.40;65.90;;;;;;4968264;28;20133;-17
2023/07/02 11:22:34;;;;;;;8.80;4.18;;;25.60;67.70;;;;;;4940149;28;20328;-17
2023/07/02 11:25:17;;;;;;;7.90;3.67;;;25.80;68.20;;;;;;4968161;28;20026;-18
2023/07/02 11:27:44;;;;;;;7.77;3.70;;;26.20;65.40;;;;;;4967282;28;20025;-18
2023/07/02 11:30:10;;;;;;;8.85;4.15;;;26.30;65.80;;;;;;4945820;28;20043;-18
2023/07/02 11:32:50;;;;;;;8.07;3.80;;;26.30;64.50;;;;;;4968422;28;20030;-18
2023/07/02 11:35:16;;;;;;;7.65;3.70;;;26.30;62.00;;;;;;4960802;28;20027;-18
2023/07/02 11:37:43;;;;;;;9.15;4.03;;;26.20;63.20;;;;;;4959364;28;20027;-18
2023/07/02 11:40:09;;;;;;;8.57;4.07;;;26.20;63.20;;;;;;4968860;28;20034;-18
2023/07/02 11:42:35;;;;;;;6.88;3.45;;;26.10;63.40;;;;;;4967179;28;20421;-17
2023/07/02 11:45:01;;;;;;;8.35;3.95;;;26.20;65.20;;;;;;4967047;28;20046;-17
2023/07/02 11:47:27;;;;;;;7.20;3.60;;;26.30;66.10;;;;;;4938470;28;20054;-18
2023/07/02 11:49:54;;;;;;;7.28;3.55;;;26.60;67.50;;;;;;4965705;28;20122;-17
2023/07/02 11:52:21;;;;;;;7.20;3.58;;;27.00;67.70;;;;;;4971303;28;20027;-18
2023/07/02 11:54:47;;;;;;;6.90;3.33;;;27.30;66.70;;;;;;4958951;28;20130;-17
2023/07/02 11:57:13;;;;;;;6.67;3.27;;;27.50;65.50;;;;;;4968078;28;20031;-18
2023/07/02 11:59:38;;;;;;;8.40;3.75;;;27.70;64.70;;;;;;4968850;28;20093;-17
2023/07/02 12:02:05;;;;;;;8.93;3.85;;;27.80;63.60;;;;;;4939881;28;20141;-18
2023/07/02 12:04:30;;;;;;;6.30;3.40;;;27.90;63.10;;;;;;4967631;28;20026;-17
2023/07/02 12:06:56;;;;;;;7.25;3.63;;;27.90;62.60;;;;;;4961542;28;20035;-17
2023/07/02 12:09:22;;;;;;;5.93;3.80;;;28.00;62.50;;;;;;4956938;28;20418;-18
2023/07/02 12:11:48;;;;;;;6.35;3.80;;;28.10;63.20;;;;;;4970033;28;20117;-17
2023/07/02 12:14:14;;;;;;;7.03;3.85;;;28.30;63.10;;;;;;4968914;28;20824;-18
2023/07/02 12:16:39;;;;;;;6.53;3.30;;;28.40;62.10;;;;;;4925919;28;20952;-17
2023/07/02 12:19:05;;;;;;;8.80;3.90;;;28.50;61.60;;;;;;4969478;28;20121;-17
2023/07/02 12:21:31;;;;;;;6.93;3.50;;;28.60;61.60;;;;;;4961284;28;20620;-17
2023/07/02 12:23:57;;;;;;;7.25;3.85;;;28.80;61.70;;;;;;4969368;28;20034;-17
2023/07/02 12:26:23;;;;;;;6.80;3.83;;;28.90;61.40;;;;;;4958431;28;20042;-18
2023/07/02 12:28:48;;;;;;;7.97;3.67;;;29.00;60.80;;;;;;4967185;28;20065;-17
2023/07/02 12:31:14;;;;;;;7.50;3.73;;;29.20;60.70;;;;;;4969177;28;20397;-18
2023/07/02 12:33:40;;;;;;;6.63;3.70;;;29.30;60.50;;;;;;4942413;28;20156;-18
2023/07/02 12:36:06;;;;;;;7.57;3.60;;;29.40;59.80;;;;;;4984518;28;20042;-18
2023/07/02 12:38:31;;;;;;;6.87;3.90;;;29.50;58.80;;;;;;4957730;28;20046;-18
2023/07/02 12:40:57;;;;;;;7.82;3.85;;;29.50;58.90;;;;;;4961945;28;20027;-17